createdAt,value
2022-12-11T00:00:47.945Z,23.38
2022-12-11T00:03:17.127Z,22.80
2022-12-11T00:05:45.347Z,25.13
2022-12-11T00:08:13.506Z,24.90
2022-12-11T00:10:40.322Z,23.95
2022-12-11T00:13:07.219Z,24.73
2022-12-11T00:15:34.046Z,25.00
2022-12-11T00:18:00.811Z,25.15
2022-12-11T00:20:27.651Z,22.75
2022-12-11T00:22:54.410Z,25.33
2022-12-11T00:25:21.256Z,23.48
2022-12-11T00:27:48.309Z,24.13
2022-12-11T00:30:15.107Z,21.88
2022-12-11T00:32:43.094Z,22.20
2022-12-11T00:35:10.551Z,23.13
2022-12-11T00:37:37.590Z,23.00
2022-12-11T00:40:04.869Z,23.73
2022-12-11T00:42:31.746Z,22.65
2022-12-11T00:44:58.561Z,20.90
2022-12-11T00:47:25.348Z,22.15
2022-12-11T00:49:52.165Z,22.75
2022-12-11T00:52:18.946Z,22.38
2022-12-11T00:54:45.811Z,20.67
2022-12-11T00:57:12.620Z,21.20
2022-12-11T00:59:39.533Z,21.45
2022-12-11T01:02:06.333Z,20.92
2022-12-11T01:04:36.284Z,21.38
2022-12-11T01:07:03.285Z,20.67
2022-12-11T01:09:48.654Z,20.10
2022-12-11T01:12:15.465Z,21.23
2022-12-11T01:14:42.294Z,19.67
2022-12-11T01:17:09.177Z,19.45
2022-12-11T01:19:36.008Z,20.25
2022-12-11T01:22:02.791Z,21.10
2022-12-11T01:24:29.579Z,20.02
2022-12-11T01:26:56.446Z,21.08
2022-12-11T01:29:23.234Z,20.77
2022-12-11T01:31:50.067Z,19.40
2022-12-11T01:34:16.831Z,19.92
2022-12-11T01:36:43.787Z,20.52
2022-12-11T01:39:10.585Z,20.13
2022-12-11T01:41:37.450Z,19.92
2022-12-11T01:44:06.023Z,19.70
2022-12-11T01:46:35.823Z,20.45
2022-12-11T01:49:06.088Z,19.98
2022-12-11T01:51:38.731Z,19.25
2022-12-11T01:54:10.490Z,18.13
2022-12-11T01:56:39.837Z,20.98
2022-12-11T01:59:09.477Z,19.42
2022-12-11T02:01:51.167Z,18.55
2022-12-11T02:04:19.904Z,18.35
2022-12-11T02:06:48.709Z,19.13
2022-12-11T02:09:20.131Z,19.92
2022-12-11T02:12:16.265Z,20.00
2022-12-11T02:15:11.324Z,18.65
2022-12-11T02:18:02.820Z,19.50
2022-12-11T02:20:52.952Z,20.02
2022-12-11T02:23:32.591Z,19.42
2022-12-11T02:26:14.409Z,18.67
2022-12-11T02:28:49.404Z,18.00
2022-12-11T02:31:30.035Z,19.17
2022-12-11T02:34:12.168Z,19.63
2022-12-11T02:36:43.308Z,17.45
2022-12-11T02:39:13.408Z,19.38
2022-12-11T02:41:48.131Z,20.35
2022-12-11T02:44:17.435Z,19.98
2022-12-11T02:46:44.914Z,19.80
2022-12-11T02:49:13.705Z,18.92
2022-12-11T02:51:42.608Z,22.48
2022-12-11T02:54:20.831Z,20.10
2022-12-11T02:57:04.823Z,20.60
2022-12-11T02:59:38.188Z,20.30
2022-12-11T03:04:34.067Z,20.58
2022-12-11T03:07:12.106Z,19.83
2022-12-11T03:09:40.246Z,20.67
2022-12-11T03:12:10.923Z,21.30
2022-12-11T03:14:40.530Z,19.63
2022-12-11T03:17:21.256Z,21.15
2022-12-11T03:20:06.203Z,20.35
2022-12-11T03:22:57.199Z,21.08
2022-12-11T03:25:39.482Z,20.75
2022-12-11T03:28:12.819Z,21.45
2022-12-11T03:33:13.814Z,20.70
2022-12-11T03:35:53.430Z,21.08
2022-12-11T03:38:34.359Z,19.25
2022-12-11T03:41:03.222Z,19.40
2022-12-11T03:43:32.116Z,21.20
2022-12-11T03:46:00.796Z,21.65
2022-12-11T03:48:33.314Z,21.73
2022-12-11T03:51:02.404Z,21.43
2022-12-11T03:53:30.098Z,21.35
2022-12-11T03:55:58.969Z,20.48
2022-12-11T03:58:26.043Z,22.70
2022-12-11T04:00:52.948Z,21.55
2022-12-11T04:03:19.922Z,21.58
2022-12-11T04:05:52.746Z,22.40
2022-12-11T04:08:21.172Z,21.80
2022-12-11T04:10:49.239Z,21.73
2022-12-11T04:13:16.105Z,22.60
2022-12-11T04:15:42.907Z,23.85
2022-12-11T04:18:29.231Z,24.15
2022-12-11T04:21:15.545Z,21.92
2022-12-11T04:24:01.026Z,22.67
2022-12-11T04:26:27.869Z,23.60
2022-12-11T04:28:54.714Z,24.10
2022-12-11T04:31:22.745Z,24.38
2022-12-11T04:33:50.114Z,23.77
2022-12-11T04:36:17.566Z,24.90
2022-12-11T04:38:44.354Z,25.48
2022-12-11T04:41:15.563Z,23.75
2022-12-11T04:43:45.165Z,23.75
2022-12-11T04:46:20.787Z,23.75
2022-12-11T04:48:52.394Z,23.75
2022-12-11T04:51:22.410Z,25.02
2022-12-11T04:53:49.475Z,25.42
2022-12-11T04:56:16.716Z,25.48
2022-12-11T04:58:45.385Z,26.17
2022-12-11T05:01:19.740Z,25.52
2022-12-11T05:03:47.163Z,24.75
2022-12-11T05:06:14.417Z,26.25
2022-12-11T05:08:42.472Z,24.60
2022-12-11T05:11:12.629Z,25.35
2022-12-11T05:13:40.656Z,25.70
2022-12-11T05:16:10.094Z,24.70
2022-12-11T05:18:37.157Z,24.58
2022-12-11T05:21:07.294Z,25.38
2022-12-11T05:23:34.443Z,26.40
2022-12-11T05:26:05.039Z,25.48
2022-12-11T05:28:34.626Z,25.75
2022-12-11T05:31:17.127Z,24.15
2022-12-11T05:33:45.363Z,23.35
2022-12-11T05:36:39.005Z,24.20
2022-12-11T05:39:05.882Z,24.80
2022-12-11T05:41:33.019Z,23.88
2022-12-11T05:44:00.380Z,23.50
2022-12-11T05:46:29.437Z,23.85
2022-12-11T05:48:58.677Z,24.38
2022-12-11T05:51:26.389Z,24.13
2022-12-11T05:53:53.869Z,27.95
2022-12-11T05:56:26.590Z,24.63
2022-12-11T05:58:54.268Z,25.67
2022-12-11T06:01:24.115Z,24.98
2022-12-11T06:03:51.163Z,25.88
2022-12-11T06:06:18.280Z,25.15
2022-12-11T06:08:45.374Z,26.63
2022-12-11T06:11:19.569Z,24.98
2022-12-11T06:13:49.322Z,22.67
2022-12-11T06:16:16.447Z,25.38
2022-12-11T06:18:45.079Z,25.27
2022-12-11T06:21:17.629Z,25.58
2022-12-11T06:23:47.561Z,25.10
2022-12-11T06:26:15.647Z,24.63
2022-12-11T06:28:42.781Z,25.10
2022-12-11T06:31:09.936Z,25.63
2022-12-11T06:33:37.173Z,25.23
2022-12-11T06:36:10.284Z,25.90
2022-12-11T06:38:37.703Z,23.75
2022-12-11T06:41:08.066Z,24.60
2022-12-11T06:43:36.952Z,24.58
2022-12-11T06:46:08.590Z,25.05
2022-12-11T06:48:36.022Z,26.08
2022-12-11T06:51:11.061Z,24.33
2022-12-11T06:53:38.982Z,23.80
2022-12-11T06:56:08.571Z,23.17
2022-12-11T06:58:37.159Z,24.50
2022-12-11T07:01:05.736Z,23.80
2022-12-11T07:03:33.536Z,24.45
2022-12-11T07:06:02.294Z,25.27
2022-12-11T07:08:29.955Z,25.95
2022-12-11T07:11:06.381Z,25.77
2022-12-11T07:13:33.767Z,24.77
2022-12-11T07:16:01.967Z,25.45
2022-12-11T07:18:28.970Z,25.05
2022-12-11T07:21:00.077Z,23.58
2022-12-11T07:23:28.445Z,25.65
2022-12-11T07:25:56.091Z,27.95
2022-12-11T07:28:22.953Z,27.88
2022-12-11T07:30:49.854Z,26.48
2022-12-11T07:33:16.710Z,25.13
2022-12-11T07:35:44.113Z,25.20
2022-12-11T07:38:10.886Z,25.38
2022-12-11T07:40:37.774Z,26.27
2022-12-11T07:43:04.652Z,24.80
2022-12-11T07:45:32.000Z,23.75
2022-12-11T07:47:59.158Z,24.95
2022-12-11T07:50:26.006Z,27.90
2022-12-11T07:52:52.815Z,25.13
2022-12-11T07:55:19.634Z,26.85
2022-12-11T07:57:46.512Z,24.95
2022-12-11T08:00:13.747Z,24.48
2022-12-11T08:02:40.610Z,25.20
2022-12-11T08:05:08.457Z,24.25
2022-12-11T08:07:36.001Z,24.80
2022-12-11T08:10:04.186Z,22.70
2022-12-11T08:12:31.031Z,24.88
2022-12-11T08:14:57.955Z,24.33
2022-12-11T08:17:30.070Z,24.52
2022-12-11T08:19:57.819Z,25.25
2022-12-11T08:22:24.656Z,24.50
2022-12-11T08:24:51.455Z,24.05
2022-12-11T08:27:18.383Z,24.63
2022-12-11T08:29:46.766Z,24.88
2022-12-11T08:32:15.784Z,22.73
2022-12-11T08:34:42.815Z,23.92
2022-12-11T08:37:09.815Z,24.73
2022-12-11T08:39:36.725Z,22.75
2022-12-11T08:42:03.595Z,24.17
2022-12-11T08:44:30.466Z,23.13
2022-12-11T08:46:57.356Z,23.95
2022-12-11T08:49:24.266Z,23.00
2022-12-11T08:51:51.026Z,23.98
2022-12-11T08:54:17.855Z,24.33
2022-12-11T08:56:44.615Z,23.45
2022-12-11T08:59:11.523Z,24.45
2022-12-11T09:01:38.499Z,23.83
2022-12-11T09:04:05.424Z,25.23
2022-12-11T09:06:33.714Z,23.52
2022-12-11T09:09:02.073Z,24.40
2022-12-11T09:11:31.837Z,23.70
2022-12-11T09:14:03.545Z,23.20
2022-12-11T09:16:37.679Z,21.98
2022-12-11T09:19:04.617Z,23.23
2022-12-11T09:21:31.513Z,23.02
2022-12-11T09:24:00.238Z,22.83
2022-12-11T09:26:28.541Z,25.98
2022-12-11T09:28:55.957Z,23.30
2022-12-11T09:31:26.215Z,24.70
2022-12-11T09:33:56.765Z,23.25
2022-12-11T09:36:24.244Z,24.52
2022-12-11T09:38:51.684Z,24.90
2022-12-11T09:41:21.706Z,25.88
2022-12-11T09:44:00.575Z,22.33
2022-12-11T09:46:33.699Z,24.90
2022-12-11T09:49:03.377Z,23.02
2022-12-11T09:51:33.129Z,22.52
2022-12-11T09:54:02.928Z,22.83
2022-12-11T09:56:54.095Z,23.02
2022-12-11T09:59:40.922Z,23.65
2022-12-11T10:02:29.214Z,23.05
2022-12-11T10:05:13.773Z,21.83
2022-12-11T10:07:48.038Z,22.13
2022-12-11T10:10:33.484Z,23.95
2022-12-11T10:13:19.106Z,22.83
2022-12-11T10:15:59.074Z,25.50
2022-12-11T10:18:29.676Z,22.45
2022-12-11T10:20:57.159Z,23.25
2022-12-11T10:23:47.519Z,23.80
2022-12-11T10:26:19.970Z,22.27
2022-12-11T10:28:47.087Z,24.47
2022-12-11T10:31:21.386Z,24.92
2022-12-11T10:34:31.535Z,24.13
2022-12-11T10:37:00.548Z,24.10
2022-12-11T10:39:27.954Z,24.38
2022-12-11T10:41:56.196Z,22.85
2022-12-11T10:44:29.379Z,23.77
2022-12-11T10:47:06.053Z,24.05
2022-12-11T10:49:34.974Z,23.50
2022-12-11T10:52:09.349Z,22.80
2022-12-11T10:54:47.055Z,22.90
2022-12-11T10:57:15.225Z,24.52
2022-12-11T10:59:49.560Z,23.33
2022-12-11T11:02:26.742Z,23.67
2022-12-11T11:04:55.718Z,23.48
2022-12-11T11:07:28.270Z,23.02
2022-12-11T11:10:10.671Z,22.48
2022-12-11T11:12:49.284Z,21.27
2022-12-11T11:15:25.975Z,24.33
2022-12-11T11:17:56.803Z,23.95
2022-12-11T11:20:26.778Z,24.80
2022-12-11T11:23:00.122Z,24.65
2022-12-11T11:27:58.224Z,24.85
2022-12-11T11:30:25.008Z,25.33
2022-12-11T11:32:56.228Z,24.60
2022-12-11T11:35:26.208Z,23.55
2022-12-11T11:38:14.944Z,22.05
2022-12-11T11:40:49.095Z,24.98
2022-12-11T11:43:24.055Z,24.13
2022-12-11T11:45:56.628Z,23.90
2022-12-11T11:48:36.588Z,24.58
2022-12-11T11:51:14.746Z,23.85
2022-12-11T11:53:44.516Z,22.90
2022-12-11T11:56:37.627Z,23.42
2022-12-11T11:59:31.217Z,20.83
2022-12-11T12:01:58.900Z,21.17
2022-12-11T12:04:35.104Z,22.08
2022-12-11T12:07:16.955Z,21.70
2022-12-11T12:10:14.930Z,22.67
2022-12-11T12:12:57.489Z,23.02
2022-12-11T12:15:48.752Z,22.45
2022-12-11T12:18:46.726Z,22.63
2022-12-11T12:21:33.801Z,22.33
2022-12-11T12:24:19.375Z,22.90
2022-12-11T12:26:56.924Z,22.67
2022-12-11T12:29:29.641Z,21.02
2022-12-11T12:32:16.268Z,23.75
2022-12-11T12:35:29.821Z,24.20
2022-12-11T12:38:09.421Z,23.83
2022-12-11T12:41:33.744Z,25.80
2022-12-11T12:44:19.127Z,24.33
2022-12-11T12:47:15.156Z,25.20
2022-12-11T12:49:53.316Z,23.88
2022-12-11T12:52:36.211Z,24.92
2022-12-11T12:55:28.823Z,25.45
2022-12-11T12:58:07.498Z,24.25
2022-12-11T13:00:36.282Z,25.17
2022-12-11T13:03:23.689Z,23.75
2022-12-11T13:06:01.434Z,24.08
2022-12-11T13:08:40.368Z,24.48
2022-12-11T13:11:10.454Z,23.15
2022-12-11T13:13:41.741Z,25.25
2022-12-11T13:16:17.797Z,23.55
2022-12-11T13:18:48.163Z,24.30
2022-12-11T13:21:32.412Z,24.60
2022-12-11T13:24:20.354Z,24.23
2022-12-11T13:26:49.030Z,25.15
2022-12-11T13:29:40.384Z,23.83
2022-12-11T13:32:10.415Z,23.88
2022-12-11T13:34:40.070Z,24.73
2022-12-11T13:37:20.438Z,24.27
2022-12-11T13:39:47.739Z,25.90
2022-12-11T13:42:34.019Z,24.30
2022-12-11T13:45:02.554Z,24.17
2022-12-11T13:47:31.268Z,23.50
2022-12-11T13:50:22.683Z,25.58
2022-12-11T13:52:57.711Z,24.77
2022-12-11T13:55:33.935Z,23.85
2022-12-11T13:58:01.392Z,24.40
2022-12-11T14:00:32.889Z,27.00
2022-12-11T14:03:07.373Z,25.33
2022-12-11T14:05:35.184Z,24.83
2022-12-11T14:08:09.164Z,26.25
2022-12-11T14:10:37.131Z,23.92
2022-12-11T14:13:07.731Z,23.40
2022-12-11T14:15:36.262Z,25.63
2022-12-11T14:18:04.963Z,24.60
2022-12-11T14:20:33.829Z,23.45
2022-12-11T14:23:22.972Z,26.23
2022-12-11T14:26:19.186Z,23.80
2022-12-11T14:28:46.164Z,23.42
2022-12-11T14:31:18.279Z,25.45
2022-12-11T14:33:50.668Z,22.92
2022-12-11T14:36:17.938Z,23.03
2022-12-11T14:38:48.762Z,24.58
2022-12-11T14:41:39.763Z,24.88
2022-12-11T14:44:08.553Z,25.30
2022-12-11T14:46:43.274Z,24.60
2022-12-11T14:49:35.612Z,25.30
2022-12-11T14:52:04.492Z,24.48
2022-12-11T14:54:42.619Z,25.70
2022-12-11T14:57:19.419Z,24.98
2022-12-11T14:59:47.994Z,24.23
2022-12-11T15:02:28.216Z,25.38
2022-12-11T15:05:13.927Z,25.60
2022-12-11T15:07:43.600Z,23.60
2022-12-11T15:10:26.995Z,24.90
2022-12-11T15:12:54.879Z,25.38
2022-12-11T15:15:21.836Z,26.23
2022-12-11T15:17:52.907Z,25.25
2022-12-11T15:20:29.344Z,24.73
2022-12-11T15:23:00.295Z,24.38
2022-12-11T15:25:28.955Z,24.20
2022-12-11T15:27:59.668Z,21.23
2022-12-11T15:30:28.339Z,23.77
2022-12-11T15:33:22.179Z,24.17
2022-12-11T15:35:59.790Z,23.95
2022-12-11T15:38:30.467Z,23.00
2022-12-11T15:40:58.328Z,22.80
2022-12-11T15:43:25.880Z,24.90
2022-12-11T15:45:52.800Z,23.42
2022-12-11T15:48:19.720Z,24.23
2022-12-11T15:50:46.664Z,23.85
2022-12-11T15:53:13.776Z,23.70
2022-12-11T15:55:40.736Z,23.63
2022-12-11T15:58:13.901Z,22.65
2022-12-11T16:00:40.696Z,22.02
2022-12-11T16:03:09.538Z,22.98
2022-12-11T16:05:36.351Z,23.58
2022-12-11T16:08:03.297Z,23.27
2022-12-11T16:10:30.256Z,23.85
2022-12-11T16:12:59.717Z,21.67
2022-12-11T16:15:27.443Z,22.23
2022-12-11T16:18:06.374Z,22.45
2022-12-11T16:20:35.516Z,21.42
2022-12-11T16:23:02.535Z,22.52
2022-12-11T16:25:30.018Z,21.80
2022-12-11T16:27:58.467Z,22.52
2022-12-11T16:30:26.127Z,21.52
2022-12-11T16:32:53.358Z,21.55
2022-12-11T16:35:21.444Z,19.48
2022-12-11T16:37:51.599Z,19.58
2022-12-11T16:40:19.623Z,21.08
2022-12-11T16:42:47.040Z,20.80
2022-12-11T16:45:17.425Z,21.85
2022-12-11T16:47:44.480Z,22.17
2022-12-11T16:50:12.340Z,20.25
2022-12-11T16:52:39.835Z,21.15
2022-12-11T16:55:07.887Z,18.45
2022-12-11T16:57:35.956Z,21.35
2022-12-11T17:00:05.516Z,18.65
2022-12-11T17:02:33.294Z,20.38
2022-12-11T17:05:00.218Z,21.70
2022-12-11T17:07:27.184Z,21.17
2022-12-11T17:09:54.065Z,21.23
2022-12-11T17:12:25.896Z,21.00
2022-12-11T17:14:52.821Z,21.33
2022-12-11T17:17:19.691Z,19.17
2022-12-11T17:19:46.951Z,20.50
2022-12-11T17:22:13.805Z,19.83
2022-12-11T17:24:40.708Z,21.20
2022-12-11T17:27:07.610Z,21.02
2022-12-11T17:29:34.732Z,21.15
2022-12-11T17:32:03.253Z,20.35
2022-12-11T17:34:36.086Z,21.08
2022-12-11T17:37:05.627Z,21.58
2022-12-11T17:39:32.683Z,22.42
2022-12-11T17:41:59.743Z,22.55
2022-12-11T17:44:30.443Z,22.88
2022-12-11T17:46:58.550Z,21.20
2022-12-11T17:49:25.748Z,22.13
2022-12-11T17:51:53.256Z,22.65
2022-12-11T17:54:20.213Z,21.20
2022-12-11T17:56:47.230Z,23.65
2022-12-11T17:59:14.113Z,24.27
2022-12-11T18:01:41.012Z,23.13
2022-12-11T18:04:07.988Z,22.60
2022-12-11T18:06:35.072Z,22.40
2022-12-11T18:09:02.010Z,22.75
2022-12-11T18:11:29.214Z,21.02
2022-12-11T18:13:56.148Z,22.95
2022-12-11T18:16:30.173Z,20.25
2022-12-11T18:18:57.257Z,20.50
2022-12-11T18:21:30.601Z,22.20
2022-12-11T18:26:25.746Z,22.40
2022-12-11T18:28:53.416Z,21.02
2022-12-11T18:31:21.749Z,20.83
2022-12-11T18:33:49.529Z,21.00
2022-12-11T18:36:19.114Z,20.67
2022-12-11T18:38:47.071Z,20.25
2022-12-11T18:41:15.082Z,20.48
2022-12-11T18:43:42.403Z,19.95
2022-12-11T18:46:15.920Z,19.45
2022-12-11T18:48:44.485Z,20.10
2022-12-11T18:51:18.471Z,19.23
2022-12-11T18:53:46.702Z,18.80
2022-12-11T18:56:16.348Z,17.52
2022-12-11T18:58:44.142Z,19.73
2022-12-11T19:01:18.463Z,18.10
2022-12-11T19:03:45.678Z,19.05
2022-12-11T19:06:15.918Z,17.30
2022-12-11T19:08:42.873Z,16.55
2022-12-11T19:11:09.894Z,17.98
2022-12-11T19:13:36.787Z,16.75
2022-12-11T19:16:03.940Z,18.33
2022-12-11T19:18:30.761Z,18.00
2022-12-11T19:21:08.096Z,18.27
2022-12-11T19:23:36.376Z,17.23
2022-12-11T19:26:03.741Z,18.08
2022-12-11T19:28:31.165Z,19.70
2022-12-11T19:30:58.074Z,17.70
2022-12-11T19:33:24.980Z,18.35
2022-12-11T19:36:04.608Z,17.60
2022-12-11T19:38:31.523Z,16.13
2022-12-11T19:40:58.817Z,16.75
2022-12-11T19:43:25.654Z,16.60
2022-12-11T19:45:52.610Z,17.42
2022-12-11T19:48:19.512Z,17.15
2022-12-11T19:50:46.359Z,17.30
2022-12-11T19:53:13.375Z,16.45
2022-12-11T19:55:40.211Z,16.63
2022-12-11T19:58:07.102Z,16.35
2022-12-11T20:00:37.675Z,16.08
2022-12-11T20:03:04.514Z,18.80
2022-12-11T20:05:31.453Z,16.92
2022-12-11T20:08:27.422Z,15.35
2022-12-11T20:10:47.155Z,17.55
2022-12-11T20:13:16.434Z,15.60
2022-12-11T20:15:43.260Z,15.68
2022-12-11T20:18:12.778Z,16.17
2022-12-11T20:20:43.827Z,14.43
2022-12-11T20:23:10.843Z,15.35
2022-12-11T20:25:40.333Z,15.88
2022-12-11T20:28:07.345Z,16.85
2022-12-11T20:30:34.695Z,16.77
2022-12-11T20:33:01.556Z,17.15
2022-12-11T20:35:28.431Z,17.10
2022-12-11T20:37:55.224Z,16.40
2022-12-11T20:40:22.165Z,17.60
2022-12-11T20:42:49.765Z,17.30
2022-12-11T20:45:16.947Z,16.48
2022-12-11T20:47:43.867Z,15.85
2022-12-11T20:50:11.189Z,17.65
2022-12-11T20:52:38.320Z,17.15
2022-12-11T20:55:06.413Z,16.60
2022-12-11T20:57:33.373Z,16.85
2022-12-11T21:00:00.516Z,16.83
2022-12-11T21:02:30.829Z,16.42
2022-12-11T21:04:58.157Z,17.67
2022-12-11T21:07:25.662Z,16.67
2022-12-11T21:09:52.506Z,17.80
2022-12-11T21:12:19.519Z,17.52
2022-12-11T21:14:46.354Z,18.55
2022-12-11T21:17:13.242Z,18.50
2022-12-11T21:19:40.143Z,17.88
2022-12-11T21:22:07.006Z,16.58
2022-12-11T21:24:34.105Z,16.75
2022-12-11T21:27:00.955Z,17.02
2022-12-11T21:29:29.514Z,17.92
2022-12-11T21:31:56.986Z,17.90
2022-12-11T21:34:25.735Z,17.63
2022-12-11T21:36:56.658Z,15.90
2022-12-11T21:39:25.480Z,17.90
2022-12-11T21:41:52.528Z,16.50
2022-12-11T21:47:06.436Z,16.50
2022-12-11T21:49:33.443Z,17.42
2022-12-11T21:52:00.422Z,18.38
2022-12-11T21:54:27.342Z,15.43
2022-12-11T21:56:54.613Z,17.70
2022-12-11T21:59:21.500Z,17.35
2022-12-11T22:01:48.294Z,18.05
2022-12-11T22:04:15.908Z,17.30
2022-12-11T22:06:43.607Z,16.30
2022-12-11T22:09:12.693Z,17.70
2022-12-11T22:11:40.982Z,16.58
2022-12-11T22:14:08.019Z,16.52
2022-12-11T22:16:35.396Z,16.23
2022-12-11T22:19:02.286Z,15.90
2022-12-11T22:21:29.311Z,16.88
2022-12-11T22:23:56.220Z,17.75
2022-12-11T22:26:26.078Z,17.67
2022-12-11T22:28:53.800Z,17.75
2022-12-11T22:31:22.764Z,17.25
2022-12-11T22:33:51.424Z,18.75
2022-12-11T22:36:19.160Z,18.15
2022-12-11T22:38:47.127Z,17.20
2022-12-11T22:41:22.700Z,16.90
2022-12-11T22:43:50.374Z,17.05
2022-12-11T22:46:19.712Z,16.33
2022-12-11T22:48:46.697Z,17.23
2022-12-11T22:51:14.043Z,18.05
2022-12-11T22:53:40.875Z,16.70
2022-12-11T22:56:10.023Z,17.67
2022-12-11T22:58:37.254Z,17.33
2022-12-11T23:01:10.714Z,15.38
2022-12-11T23:03:37.898Z,16.30
2022-12-11T23:06:09.478Z,17.42
2022-12-11T23:08:36.730Z,16.25
2022-12-11T23:11:21.784Z,15.95
2022-12-11T23:13:48.783Z,16.45
2022-12-11T23:16:16.046Z,16.52
2022-12-11T23:18:43.417Z,15.40
2022-12-11T23:21:10.957Z,17.88
2022-12-11T23:48:22.264Z,18.10
2022-12-11T23:50:49.224Z,19.08
2022-12-11T23:53:16.177Z,19.70
2022-12-11T23:55:44.715Z,20.55
2022-12-11T23:58:11.925Z,18.60
